39.1°F
Current conditions from King Hill
Updated every 5 minutes
 
  Thursday April 17, 2014

Station Historical Data
Daily Summary for May 3, 2012 Units:  Both    English   Metric
« Previous Day
Next Day »
Daily Weekly Monthly Yearly Custom
  High: Low: Average:
Temperature: 63.8 °F /  17.7 °C 48.1 °F /  8.9 °C 54.6 °F /  12.6 °C
Dew Point: 52.3 °F /  11.3 °C 44.7 °F /  7.1 °C 48.4 °F /  9.1 °C
Humidity: 92% 66% 80%
Wind Speed: 9.0mph /  14.5km/h - 3.6mph /  5.8km/h
Wind Gust: 18.0mph /  29km/h - -
Wind- - SSW
Pressure: 30.07 in /  1018.2 hPa 29.92 in /  1013.1 hPa -
Precipitation: 0.04 in /  1 mm    
Historical Graphs
 
 
Tabular Data for May 3, 2012
Time Temperature Dew Point Pressure Wind Wind Speed Wind Gust Humidity Daily Rainfall
00:04 50.5 °F /  10.3 °C 45.5 °F /  7.5 °C 30.01in /  1016.1hPa South 4.0mph /  6.4km/h 9.0mph /  14.5km/h 83% 0.00in /  0mm
00:09 50.4 °F /  10.2 °C 45.4 °F /  7.4 °C 30.01in /  1016.1hPa South 2.0mph /  3.2km/h 9.0mph /  14.5km/h 83% 0.00in /  0mm
00:14 50.3 °F /  10.2 °C 45.7 °F /  7.6 °C 30.01in /  1016.1hPa SSW 3.0mph /  4.8km/h 8.0mph /  12.9km/h 84% 0.00in /  0mm
00:19 50.1 °F /  10.1 °C 45.5 °F /  7.5 °C 30.00in /  1015.8hPa South 2.0mph /  3.2km/h 8.0mph /  12.9km/h 84% 0.00in /  0mm
00:24 50.0 °F /  10 °C 45.7 °F /  7.6 °C 30.00in /  1015.8hPa South 3.0mph /  4.8km/h 13.0mph /  20.9km/h 85% 0.01in /  0.3mm
00:29 49.8 °F /  9.9 °C 45.5 °F /  7.5 °C 30.00in /  1015.8hPa SSW 5.0mph /  8km/h 13.0mph /  20.9km/h 85% 0.01in /  0.3mm
00:34 49.7 °F /  9.8 °C 45.7 °F /  7.6 °C 30.00in /  1015.8hPa SSW 4.0mph /  6.4km/h 12.0mph /  19.3km/h 86% 0.02in /  0.5mm
00:39 49.6 °F /  9.8 °C 45.6 °F /  7.6 °C 30.00in /  1015.8hPa South 4.0mph /  6.4km/h 12.0mph /  19.3km/h 86% 0.02in /  0.5mm
00:44 49.5 °F /  9.7 °C 45.8 °F /  7.7 °C 30.00in /  1015.8hPa South 4.0mph /  6.4km/h 12.0mph /  19.3km/h 87% 0.02in /  0.5mm
00:49 49.4 °F /  9.7 °C 45.7 °F /  7.6 °C 30.00in /  1015.8hPa SSW 6.0mph /  9.7km/h 12.0mph /  19.3km/h 87% 0.02in /  0.5mm
00:54 49.4 °F /  9.7 °C 46.0 °F /  7.8 °C 30.00in /  1015.8hPa South 6.0mph /  9.7km/h 12.0mph /  19.3km/h 88% 0.02in /  0.5mm
00:59 49.3 °F /  9.6 °C 45.9 °F /  7.7 °C 30.00in /  1015.8hPa SSW 5.0mph /  8km/h 10.0mph /  16.1km/h 88% 0.02in /  0.5mm
01:04 49.2 °F /  9.6 °C 45.8 °F /  7.7 °C 30.00in /  1015.8hPa South 5.0mph /  8km/h 12.0mph /  19.3km/h 88% 0.02in /  0.5mm
01:09 49.1 °F /  9.5 °C 45.7 °F /  7.6 °C 30.00in /  1015.8hPa SSW 4.0mph /  6.4km/h 12.0mph /  19.3km/h 88% 0.02in /  0.5mm
01:14 49.0 °F /  9.4 °C 45.6 °F /  7.6 °C 30.00in /  1015.8hPa SSW 5.0mph /  8km/h 10.0mph /  16.1km/h 88% 0.02in /  0.5mm
01:19 48.9 °F /  9.4 °C 45.5 °F /  7.5 °C 30.00in /  1015.8hPa South 4.0mph /  6.4km/h 11.0mph /  17.7km/h 88% 0.02in /  0.5mm
01:24 48.7 °F /  9.3 °C 45.3 °F /  7.4 °C 30.00in /  1015.8hPa South 6.0mph /  9.7km/h 11.0mph /  17.7km/h 88% 0.03in /  0.8mm
01:29 48.7 °F /  9.3 °C 45.3 °F /  7.4 °C 30.00in /  1015.8hPa South 4.0mph /  6.4km/h 10.0mph /  16.1km/h 88% 0.03in /  0.8mm
01:34 48.5 °F /  9.2 °C 45.1 °F /  7.3 °C 30.00in /  1015.8hPa South 4.0mph /  6.4km/h 10.0mph /  16.1km/h 88% 0.03in /  0.8mm
01:39 48.5 °F /  9.2 °C 45.1 °F /  7.3 °C 30.00in /  1015.8hPa SSW 2.0mph /  3.2km/h 12.0mph /  19.3km/h 88% 0.03in /  0.8mm
01:44 48.5 °F /  9.2 °C 45.1 °F /  7.3 °C 30.00in /  1015.8hPa South 2.0mph /  3.2km/h 12.0mph /  19.3km/h 88% 0.03in /  0.8mm
01:49 48.5 °F /  9.2 °C 45.1 °F /  7.3 °C 30.00in /  1015.8hPa South 4.0mph /  6.4km/h 9.0mph /  14.5km/h 88% 0.03in /  0.8mm
01:54 48.5 °F /  9.2 °C 45.1 °F /  7.3 °C 30.00in /  1015.8hPa SSW 3.0mph /  4.8km/h 10.0mph /  16.1km/h 88% 0.03in /  0.8mm
01:59 48.5 °F /  9.2 °C 45.1 °F /  7.3 °C 30.00in /  1015.8hPa South 3.0mph /  4.8km/h 10.0mph /  16.1km/h 88% 0.03in /  0.8mm
02:04 48.5 °F /  9.2 °C 45.1 °F /  7.3 °C 30.00in /  1015.8hPa South 4.0mph /  6.4km/h 7.0mph /  11.3km/h 88% 0.03in /  0.8mm
02:09 48.5 °F /  9.2 °C 45.1 °F /  7.3 °C 30.00in /  1015.8hPa SSW 3.0mph /  4.8km/h 7.0mph /  11.3km/h 88% 0.03in /  0.8mm
02:14 48.5 °F /  9.2 °C 45.1 °F /  7.3 °C 30.00in /  1015.8hPa SSW 3.0mph /  4.8km/h 7.0mph /  11.3km/h 88% 0.03in /  0.8mm
02:19 48.5 °F /  9.2 °C 45.1 °F /  7.3 °C 30.00in /  1015.8hPa SSW 2.0mph /  3.2km/h 7.0mph /  11.3km/h 88% 0.03in /  0.8mm
02:24 48.5 °F /  9.2 °C 45.1 °F /  7.3 °C 30.00in /  1015.8hPa South 1.0mph /  1.6km/h 5.0mph /  8km/h 88% 0.03in /  0.8mm
02:29 48.4 °F /  9.1 °C 45.0 °F /  7.2 °C 29.99in /  1015.5hPa SSW 2.0mph /  3.2km/h 6.0mph /  9.7km/h 88% 0.03in /  0.8mm
02:34 48.4 °F /  9.1 °C 45.0 °F /  7.2 °C 29.99in /  1015.5hPa SSW 2.0mph /  3.2km/h 9.0mph /  14.5km/h 88% 0.04in /  1mm
02:39 48.3 °F /  9.1 °C 44.9 °F /  7.2 °C 30.00in /  1015.8hPa SSW 2.0mph /  3.2km/h 9.0mph /  14.5km/h 88% 0.04in /  1mm
02:44 48.2 °F /  9 °C 44.8 °F /  7.1 °C 30.00in /  1015.8hPa SSW 5.0mph /  8km/h 11.0mph /  17.7km/h 88% 0.04in /  1mm
02:49 48.2 °F /  9 °C 46.0 °F /  7.8 °C 30.00in /  1015.8hPa SSW 1.0mph /  1.6km/h 11.0mph /  17.7km/h 92% 0.04in /  1mm
02:54 48.1 °F /  8.9 °C 44.7 °F /  7.1 °C 30.00in /  1015.8hPa SSW 3.0mph /  4.8km/h 9.0mph /  14.5km/h 88% 0.04in /  1mm
02:59 48.1 °F /  8.9 °C 44.7 °F /  7.1 °C 30.00in /  1015.8hPa SSW 3.0mph /  4.8km/h 8.0mph /  12.9km/h 88% 0.04in /  1mm
03:04 48.1 °F /  8.9 °C 44.7 °F /  7.1 °C 30.00in /  1015.8hPa South 3.0mph /  4.8km/h 8.0mph /  12.9km/h 88% 0.04in /  1mm
03:09 48.1 °F /  8.9 °C 44.7 °F /  7.1 °C 30.00in /  1015.8hPa Calm   7.0mph /  11.3km/h 88% 0.04in /  1mm
03:14 48.1 °F /  8.9 °C 44.7 °F /  7.1 °C 30.00in /  1015.8hPa SSW 5.0mph /  8km/h 10.0mph /  16.1km/h 88% 0.04in /  1mm
03:19 48.1 °F /  8.9 °C 44.7 °F /  7.1 °C 30.00in /  1015.8hPa SSW 2.0mph /  3.2km/h 10.0mph /  16.1km/h 88% 0.04in /  1mm
03:24 48.2 °F /  9 °C 44.8 °F /  7.1 °C 30.00in /  1015.8hPa South 1.0mph /  1.6km/h 9.0mph /  14.5km/h 88% 0.04in /  1mm
03:29 48.1 °F /  8.9 °C 44.7 °F /  7.1 °C 30.01in /  1016.1hPa SW 3.0mph /  4.8km/h 7.0mph /  11.3km/h 88% 0.04in /  1mm
03:49 48.1 °F /  8.9 °C 44.7 °F /  7.1 °C 30.00in /  1015.8hPa SSW 5.0mph /  8km/h 10.0mph /  16.1km/h 88% 0.04in /  1mm
03:54 48.1 °F /  8.9 °C 44.7 °F /  7.1 °C 30.00in /  1015.8hPa South 4.0mph /  6.4km/h 10.0mph /  16.1km/h 88% 0.04in /  1mm
03:59 48.1 °F /  8.9 °C 44.7 °F /  7.1 °C 30.00in /  1015.8hPa South 2.0mph /  3.2km/h 9.0mph /  14.5km/h 88% 0.04in /  1mm
04:04 48.2 °F /  9 °C 44.8 °F /  7.1 °C 30.00in /  1015.8hPa SSW 3.0mph /  4.8km/h 8.0mph /  12.9km/h 88% 0.04in /  1mm
04:10 48.2 °F /  9 °C 44.8 °F /  7.1 °C 30.00in /  1015.8hPa Calm   7.0mph /  11.3km/h 88% 0.04in /  1mm
04:24 48.4 °F /  9.1 °C 45.0 °F /  7.2 °C 30.00in /  1015.8hPa SSW 2.0mph /  3.2km/h 7.0mph /  11.3km/h 88% 0.04in /  1mm
04:34 48.5 °F /  9.2 °C 45.1 °F /  7.3 °C 30.01in /  1016.1hPa Calm   6.0mph /  9.7km/h 88% 0.04in /  1mm
04:59 48.6 °F /  9.2 °C 45.2 °F /  7.3 °C 30.01in /  1016.1hPa SSW 6.0mph /  9.7km/h 12.0mph /  19.3km/h 88% 0.04in /  1mm
05:04 48.7 °F /  9.3 °C 45.3 °F /  7.4 °C 30.01in /  1016.1hPa South 5.0mph /  8km/h 12.0mph /  19.3km/h 88% 0.04in /  1mm
05:19 48.8 °F /  9.3 °C 45.4 °F /  7.4 °C 30.01in /  1016.1hPa SSW 1.0mph /  1.6km/h 10.0mph /  16.1km/h 88% 0.04in /  1mm
05:24 48.8 °F /  9.3 °C 45.1 °F /  7.3 °C 30.01in /  1016.1hPa SSW 4.0mph /  6.4km/h 12.0mph /  19.3km/h 87% 0.04in /  1mm
05:29 48.9 °F /  9.4 °C 45.2 °F /  7.3 °C 30.01in /  1016.1hPa SSW 4.0mph /  6.4km/h 12.0mph /  19.3km/h 87% 0.04in /  1mm
05:34 49.0 °F /  9.4 °C 45.3 °F /  7.4 °C 30.01in /  1016.1hPa South 5.0mph /  8km/h 12.0mph /  19.3km/h 87% 0.04in /  1mm
05:39 49.0 °F /  9.4 °C 45.3 °F /  7.4 °C 30.01in /  1016.1hPa SSW 4.0mph /  6.4km/h 11.0mph /  17.7km/h 87% 0.04in /  1mm
05:49 49.1 °F /  9.5 °C 45.4 °F /  7.4 °C 30.01in /  1016.1hPa SSW 3.0mph /  4.8km/h 10.0mph /  16.1km/h 87% 0.04in /  1mm
05:54 49.2 °F /  9.6 °C 45.2 °F /  7.3 °C 30.01in /  1016.1hPa SSW 5.0mph /  8km/h 15.0mph /  24.1km/h 86% 0.04in /  1mm
06:00 49.2 °F /  9.6 °C 45.2 °F /  7.3 °C 30.01in /  1016.1hPa SSW 5.0mph /  8km/h 15.0mph /  24.1km/h 86% 0.04in /  1mm
06:09 49.3 °F /  9.6 °C 45.3 °F /  7.4 °C 30.01in /  1016.1hPa SSW 5.0mph /  8km/h 12.0mph /  19.3km/h 86% 0.04in /  1mm
06:14 49.4 °F /  9.7 °C 45.4 °F /  7.4 °C 30.01in /  1016.1hPa SSW 5.0mph /  8km/h 12.0mph /  19.3km/h 86% 0.04in /  1mm
06:19 49.4 °F /  9.7 °C 45.4 °F /  7.4 °C 30.01in /  1016.1hPa SSW 4.0mph /  6.4km/h 9.0mph /  14.5km/h 86% 0.04in /  1mm
06:24 49.4 °F /  9.7 °C 45.4 °F /  7.4 °C 30.01in /  1016.1hPa South 3.0mph /  4.8km/h 10.0mph /  16.1km/h 86% 0.04in /  1mm
06:29 49.5 °F /  9.7 °C 45.5 °F /  7.5 °C 30.02in /  1016.5hPa SSW 2.0mph /  3.2km/h 10.0mph /  16.1km/h 86% 0.04in /  1mm
06:34 49.5 °F /  9.7 °C 45.2 °F /  7.3 °C 30.02in /  1016.5hPa SSW 3.0mph /  4.8km/h 8.0mph /  12.9km/h 85% 0.04in /  1mm
06:39 49.5 °F /  9.7 °C 45.2 °F /  7.3 °C 30.02in /  1016.5hPa SSW 5.0mph /  8km/h 8.0mph /  12.9km/h 85% 0.04in /  1mm
06:44 49.5 °F /  9.7 °C 45.2 °F /  7.3 °C 30.02in /  1016.5hPa SSW 6.0mph /  9.7km/h 8.0mph /  12.9km/h 85% 0.04in /  1mm
06:49 49.6 °F /  9.8 °C 45.3 °F /  7.4 °C 30.02in /  1016.5hPa SSW 2.0mph /  3.2km/h 8.0mph /  12.9km/h 85% 0.04in /  1mm
06:54 49.6 °F /  9.8 °C 45.3 °F /  7.4 °C 30.02in /  1016.5hPa SSW 3.0mph /  4.8km/h 8.0mph /  12.9km/h 85% 0.04in /  1mm
06:59 49.6 °F /  9.8 °C 45.3 °F /  7.4 °C 30.02in /  1016.5hPa South 2.0mph /  3.2km/h 8.0mph /  12.9km/h 85% 0.04in /  1mm
07:04 49.7 °F /  9.8 °C 45.4 °F /  7.4 °C 30.02in /  1016.5hPa South 4.0mph /  6.4km/h 8.0mph /  12.9km/h 85% 0.04in /  1mm
07:09 49.8 °F /  9.9 °C 45.5 °F /  7.5 °C 30.02in /  1016.5hPa SSW 3.0mph /  4.8km/h 9.0mph /  14.5km/h 85% 0.04in /  1mm
07:14 49.8 °F /  9.9 °C 45.2 °F /  7.3 °C 30.02in /  1016.5hPa SSW 5.0mph /  8km/h 14.0mph /  22.5km/h 84% 0.04in /  1mm
07:19 49.9 °F /  9.9 °C 45.3 °F /  7.4 °C 30.03in /  1016.8hPa South 3.0mph /  4.8km/h 14.0mph /  22.5km/h 84% 0.04in /  1mm
07:24 49.9 °F /  9.9 °C 45.3 °F /  7.4 °C 30.03in /  1016.8hPa SW 2.0mph /  3.2km/h 8.0mph /  12.9km/h 84% 0.04in /  1mm
07:29 49.9 °F /  9.9 °C 45.3 °F /  7.4 °C 30.03in /  1016.8hPa SSW 1.0mph /  1.6km/h 9.0mph /  14.5km/h 84% 0.04in /  1mm
07:34 49.9 °F /  9.9 °C 45.3 °F /  7.4 °C 30.03in /  1016.8hPa SSW 4.0mph /  6.4km/h 9.0mph /  14.5km/h 84% 0.04in /  1mm
07:39 49.9 °F /  9.9 °C 45.3 °F /  7.4 °C 30.03in /  1016.8hPa South 3.0mph /  4.8km/h 8.0mph /  12.9km/h 84% 0.04in /  1mm
07:49 50.1 °F /  10.1 °C 45.5 °F /  7.5 °C 30.04in /  1017.2hPa SSW 3.0mph /  4.8km/h 7.0mph /  11.3km/h 84% 0.04in /  1mm
07:54 50.1 °F /  10.1 °C 45.5 °F /  7.5 °C 30.04in /  1017.2hPa South 3.0mph /  4.8km/h 7.0mph /  11.3km/h 84% 0.04in /  1mm
07:59 50.2 °F /  10.1 °C 45.2 °F /  7.3 °C 30.03in /  1016.8hPa SSW 3.0mph /  4.8km/h 9.0mph /  14.5km/h 83% 0.04in /  1mm
08:04 50.2 °F /  10.1 °C 45.2 °F /  7.3 °C 30.03in /  1016.8hPa SSW 3.0mph /  4.8km/h 9.0mph /  14.5km/h 83% 0.04in /  1mm
08:09 50.3 °F /  10.2 °C 45.3 °F /  7.4 °C 30.04in /  1017.2hPa Calm   7.0mph /  11.3km/h 83% 0.04in /  1mm
08:14 50.3 °F /  10.2 °C 45.3 °F /  7.4 °C 30.04in /  1017.2hPa South 2.0mph /  3.2km/h 11.0mph /  17.7km/h 83% 0.04in /  1mm
08:19 50.3 °F /  10.2 °C 45.3 °F /  7.4 °C 30.04in /  1017.2hPa SSW 6.0mph /  9.7km/h 11.0mph /  17.7km/h 83% 0.04in /  1mm
08:24 50.3 °F /  10.2 °C 45.3 °F /  7.4 °C 30.04in /  1017.2hPa South 3.0mph /  4.8km/h 10.0mph /  16.1km/h 83% 0.04in /  1mm
08:34 50.5 °F /  10.3 °C 45.5 °F /  7.5 °C 30.05in /  1017.5hPa South 2.0mph /  3.2km/h 10.0mph /  16.1km/h 83% 0.04in /  1mm
08:39 50.5 °F /  10.3 °C 45.5 °F /  7.5 °C 30.05in /  1017.5hPa SSW 3.0mph /  4.8km/h 8.0mph /  12.9km/h 83% 0.04in /  1mm
08:44 50.6 °F /  10.3 °C 45.6 °F /  7.6 °C 30.06in /  1017.8hPa SSW 2.0mph /  3.2km/h 7.0mph /  11.3km/h 83% 0.04in /  1mm
08:49 50.6 °F /  10.3 °C 45.6 °F /  7.6 °C 30.06in /  1017.8hPa SSW 3.0mph /  4.8km/h 9.0mph /  14.5km/h 83% 0.04in /  1mm
08:54 50.7 °F /  10.4 °C 45.4 °F /  7.4 °C 30.06in /  1017.8hPa SSW 5.0mph /  8km/h 11.0mph /  17.7km/h 82% 0.04in /  1mm
08:59 50.6 °F /  10.3 °C 45.3 °F /  7.4 °C 30.06in /  1017.8hPa SSW 7.0mph /  11.3km/h 12.0mph /  19.3km/h 82% 0.04in /  1mm
09:04 50.8 °F /  10.4 °C 45.5 °F /  7.5 °C 30.05in /  1017.5hPa South 2.0mph /  3.2km/h 12.0mph /  19.3km/h 82% 0.04in /  1mm
09:09 50.9 °F /  10.5 °C 45.6 °F /  7.6 °C 30.05in /  1017.5hPa SSW 5.0mph /  8km/h 11.0mph /  17.7km/h 82% 0.04in /  1mm
09:14 51.1 °F /  10.6 °C 45.8 °F /  7.7 °C 30.05in /  1017.5hPa South 4.0mph /  6.4km/h 11.0mph /  17.7km/h 82% 0.04in /  1mm
09:19 51.3 °F /  10.7 °C 46.0 °F /  7.8 °C 30.05in /  1017.5hPa SSW 3.0mph /  4.8km/h 9.0mph /  14.5km/h 82% 0.04in /  1mm
09:24 51.4 °F /  10.8 °C 45.8 °F /  7.7 °C 30.05in /  1017.5hPa South 4.0mph /  6.4km/h 12.0mph /  19.3km/h 81% 0.04in /  1mm
09:29 51.7 °F /  10.9 °C 46.4 °F /  8 °C 30.05in /  1017.5hPa South 3.0mph /  4.8km/h 12.0mph /  19.3km/h 82% 0.04in /  1mm
09:34 52.1 °F /  11.2 °C 46.8 °F /  8.2 °C 30.05in /  1017.5hPa SSW 5.0mph /  8km/h 13.0mph /  20.9km/h 82% 0.04in /  1mm
09:39 52.2 °F /  11.2 °C 46.6 °F /  8.1 °C 30.06in /  1017.8hPa SSW 5.0mph /  8km/h 13.0mph /  20.9km/h 81% 0.04in /  1mm
09:49 52.3 °F /  11.3 °C 46.3 °F /  7.9 °C 30.06in /  1017.8hPa SSW 7.0mph /  11.3km/h 11.0mph /  17.7km/h 80% 0.04in /  1mm
09:54 52.3 °F /  11.3 °C 46.6 °F /  8.1 °C 30.06in /  1017.8hPa SSW 5.0mph /  8km/h 12.0mph /  19.3km/h 81% 0.04in /  1mm
09:59 52.6 °F /  11.4 °C 46.9 °F /  8.3 °C 30.07in /  1018.2hPa SSW 4.0mph /  6.4km/h 12.0mph /  19.3km/h 81% 0.04in /  1mm
10:04 52.8 °F /  11.6 °C 46.8 °F /  8.2 °C 30.06in /  1017.8hPa SSW 8.0mph /  12.9km/h 14.0mph /  22.5km/h 80% 0.04in /  1mm
10:09 52.7 °F /  11.5 °C 46.7 °F /  8.2 °C 30.06in /  1017.8hPa SSW 6.0mph /  9.7km/h 14.0mph /  22.5km/h 80% 0.04in /  1mm
10:14 53.1 °F /  11.7 °C 47.4 °F /  8.6 °C 30.06in /  1017.8hPa SSW 3.0mph /  4.8km/h 13.0mph /  20.9km/h 81% 0.04in /  1mm
10:19 53.8 °F /  12.1 °C 47.8 °F /  8.8 °C 30.06in /  1017.8hPa SSW 5.0mph /  8km/h 13.0mph /  20.9km/h 80% 0.04in /  1mm
10:24 54.1 °F /  12.3 °C 47.7 °F /  8.7 °C 30.06in /  1017.8hPa SSW 4.0mph /  6.4km/h 13.0mph /  20.9km/h 79% 0.04in /  1mm
10:29 54.2 °F /  12.3 °C 47.5 °F /  8.6 °C 30.06in /  1017.8hPa SSW 5.0mph /  8km/h 15.0mph /  24.1km/h 78% 0.04in /  1mm
10:34 55.2 °F /  12.9 °C 48.8 °F /  9.3 °C 30.07in /  1018.2hPa SSW 4.0mph /  6.4km/h 15.0mph /  24.1km/h 79% 0.04in /  1mm
10:44 55.6 °F /  13.1 °C 48.5 °F /  9.2 °C 30.06in /  1017.8hPa South 6.0mph /  9.7km/h 14.0mph /  22.5km/h 77% 0.04in /  1mm
10:49 55.6 °F /  13.1 °C 48.5 °F /  9.2 °C 30.06in /  1017.8hPa SSW 7.0mph /  11.3km/h 14.0mph /  22.5km/h 77% 0.04in /  1mm
10:54 55.5 °F /  13.1 °C 48.4 °F /  9.1 °C 30.06in /  1017.8hPa SSW 6.0mph /  9.7km/h 17.0mph /  27.4km/h 77% 0.04in /  1mm
10:59 56.1 °F /  13.4 °C 49.0 °F /  9.4 °C 30.06in /  1017.8hPa SW 6.0mph /  9.7km/h 17.0mph /  27.4km/h 77% 0.04in /  1mm
11:04 56.0 °F /  13.3 °C 48.5 °F /  9.2 °C 30.07in /  1018.2hPa SW 7.0mph /  11.3km/h 15.0mph /  24.1km/h 76% 0.04in /  1mm
11:09 55.9 °F /  13.3 °C 48.5 °F /  9.2 °C 30.07in /  1018.2hPa SSW 7.0mph /  11.3km/h 15.0mph /  24.1km/h 76% 0.04in /  1mm
11:14 55.7 °F /  13.2 °C 48.6 °F /  9.2 °C 30.07in /  1018.2hPa SSW 4.0mph /  6.4km/h 15.0mph /  24.1km/h 77% 0.04in /  1mm
11:19 55.6 °F /  13.1 °C 48.2 °F /  9 °C 30.07in /  1018.2hPa SW 8.0mph /  12.9km/h 14.0mph /  22.5km/h 76% 0.04in /  1mm
11:29 56.0 °F /  13.3 °C 48.5 °F /  9.2 °C 30.06in /  1017.8hPa SSW 9.0mph /  14.5km/h 18.0mph /  29km/h 76% 0.04in /  1mm
11:34 56.4 °F /  13.6 °C 48.9 °F /  9.4 °C 30.07in /  1018.2hPa SSW 5.0mph /  8km/h 17.0mph /  27.4km/h 76% 0.04in /  1mm
11:39 56.3 °F /  13.5 °C 48.8 °F /  9.3 °C 30.07in /  1018.2hPa SSW 5.0mph /  8km/h 17.0mph /  27.4km/h 76% 0.04in /  1mm
11:44 57.3 °F /  14.1 °C 50.2 °F /  10.1 °C 30.06in /  1017.8hPa SSW 5.0mph /  8km/h 17.0mph /  27.4km/h 77% 0.04in /  1mm
11:49 57.0 °F /  13.9 °C 49.2 °F /  9.6 °C 30.06in /  1017.8hPa SSW 8.0mph /  12.9km/h 17.0mph /  27.4km/h 75% 0.04in /  1mm
11:54 57.0 °F /  13.9 °C 48.8 °F /  9.3 °C 30.06in /  1017.8hPa SSW 6.0mph /  9.7km/h 18.0mph /  29km/h 74% 0.04in /  1mm
11:59 57.5 °F /  14.2 °C 50.4 °F /  10.2 °C 30.06in /  1017.8hPa SSW 3.0mph /  4.8km/h 18.0mph /  29km/h 77% 0.04in /  1mm
12:04 57.8 °F /  14.3 °C 49.2 °F /  9.6 °C 30.05in /  1017.5hPa SW 5.0mph /  8km/h 13.0mph /  20.9km/h 73% 0.04in /  1mm
12:09 57.6 °F /  14.2 °C 49.7 °F /  9.8 °C 30.05in /  1017.5hPa SW 6.0mph /  9.7km/h 13.0mph /  20.9km/h 75% 0.04in /  1mm
12:14 57.9 °F /  14.4 °C 49.7 °F /  9.8 °C 30.05in /  1017.5hPa SSW 7.0mph /  11.3km/h 13.0mph /  20.9km/h 74% 0.04in /  1mm
12:19 59.0 °F /  15 °C 50.4 °F /  10.2 °C 30.05in /  1017.5hPa SSW 7.0mph /  11.3km/h 13.0mph /  20.9km/h 73% 0.04in /  1mm
12:24 59.0 °F /  15 °C 50.7 °F /  10.4 °C 30.05in /  1017.5hPa SSW 4.0mph /  6.4km/h 13.0mph /  20.9km/h 74% 0.04in /  1mm
12:34 60.0 °F /  15.6 °C 50.6 °F /  10.3 °C 30.04in /  1017.2hPa South 7.0mph /  11.3km/h 12.0mph /  19.3km/h 71% 0.04in /  1mm
12:39 60.6 °F /  15.9 °C 50.8 °F /  10.4 °C 30.04in /  1017.2hPa South 7.0mph /  11.3km/h 14.0mph /  22.5km/h 70% 0.04in /  1mm
12:49 60.2 °F /  15.7 °C 50.0 °F /  10 °C 30.05in /  1017.5hPa SW 5.0mph /  8km/h 11.0mph /  17.7km/h 69% 0.04in /  1mm
12:54 59.3 °F /  15.2 °C 49.5 °F /  9.7 °C 30.05in /  1017.5hPa WSW 6.0mph /  9.7km/h 12.0mph /  19.3km/h 70% 0.04in /  1mm
12:59 59.5 °F /  15.3 °C 50.5 °F /  10.3 °C 30.04in /  1017.2hPa SW 4.0mph /  6.4km/h 12.0mph /  19.3km/h 72% 0.04in /  1mm
13:04 60.5 °F /  15.8 °C 51.1 °F /  10.6 °C 30.04in /  1017.2hPa SSW 2.0mph /  3.2km/h 11.0mph /  17.7km/h 71% 0.04in /  1mm
13:09 60.3 °F /  15.7 °C 49.7 °F /  9.8 °C 30.04in /  1017.2hPa SSW 6.0mph /  9.7km/h 13.0mph /  20.9km/h 68% 0.04in /  1mm
13:14 60.4 °F /  15.8 °C 50.2 °F /  10.1 °C 30.04in /  1017.2hPa SW 6.0mph /  9.7km/h 13.0mph /  20.9km/h 69% 0.04in /  1mm
13:19 60.9 °F /  16.1 °C 51.1 °F /  10.6 °C 30.04in /  1017.2hPa South 2.0mph /  3.2km/h 10.0mph /  16.1km/h 70% 0.04in /  1mm
13:24 61.2 °F /  16.2 °C 51.3 °F /  10.7 °C 30.04in /  1017.2hPa SSE 2.0mph /  3.2km/h 10.0mph /  16.1km/h 70% 0.04in /  1mm
13:29 61.6 °F /  16.4 °C 50.5 °F /  10.3 °C 30.03in /  1016.8hPa SSW 4.0mph /  6.4km/h 8.0mph /  12.9km/h 67% 0.04in /  1mm
13:35 61.4 °F /  16.3 °C 51.1 °F /  10.6 °C 30.03in /  1016.8hPa SW 5.0mph /  8km/h 10.0mph /  16.1km/h 69% 0.04in /  1mm
13:44 61.0 °F /  16.1 °C 50.4 °F /  10.2 °C 30.04in /  1017.2hPa SSW 3.0mph /  4.8km/h 12.0mph /  19.3km/h 68% 0.04in /  1mm
13:49 61.2 °F /  16.2 °C 51.7 °F /  10.9 °C 30.04in /  1017.2hPa Calm   11.0mph /  17.7km/h 71% 0.04in /  1mm
13:54 61.1 °F /  16.2 °C 50.5 °F /  10.3 °C 30.03in /  1016.8hPa SSW 1.0mph /  1.6km/h 9.0mph /  14.5km/h 68% 0.04in /  1mm
13:59 61.7 °F /  16.5 °C 51.0 °F /  10.6 °C 30.03in /  1016.8hPa WSW 4.0mph /  6.4km/h 8.0mph /  12.9km/h 68% 0.04in /  1mm
14:04 61.8 °F /  16.6 °C 51.5 °F /  10.8 °C 30.04in /  1017.2hPa WSW 2.0mph /  3.2km/h 8.0mph /  12.9km/h 69% 0.04in /  1mm
14:09 62.1 °F /  16.7 °C 51.4 °F /  10.8 °C 30.03in /  1016.8hPa SW 3.0mph /  4.8km/h 10.0mph /  16.1km/h 68% 0.04in /  1mm
14:14 61.7 °F /  16.5 °C 50.6 °F /  10.3 °C 30.04in /  1017.2hPa SSW 5.0mph /  8km/h 10.0mph /  16.1km/h 67% 0.04in /  1mm
14:19 61.2 °F /  16.2 °C 51.0 °F /  10.6 °C 30.04in /  1017.2hPa SW 3.0mph /  4.8km/h 9.0mph /  14.5km/h 69% 0.04in /  1mm
14:24 61.1 °F /  16.2 °C 50.5 °F /  10.3 °C 30.04in /  1017.2hPa SSW 4.0mph /  6.4km/h 9.0mph /  14.5km/h 68% 0.04in /  1mm
14:29 60.5 °F /  15.8 °C 50.3 °F /  10.2 °C 30.04in /  1017.2hPa SW 2.0mph /  3.2km/h 9.0mph /  14.5km/h 69% 0.04in /  1mm
14:34 60.8 °F /  16 °C 50.6 °F /  10.3 °C 30.03in /  1016.8hPa SSW 7.0mph /  11.3km/h 10.0mph /  16.1km/h 69% 0.04in /  1mm
14:39 61.1 °F /  16.2 °C 51.6 °F /  10.9 °C 30.03in /  1016.8hPa SSW 1.0mph /  1.6km/h 10.0mph /  16.1km/h 71% 0.04in /  1mm
14:44 61.8 °F /  16.6 °C 51.1 °F /  10.6 °C 30.03in /  1016.8hPa SSW 2.0mph /  3.2km/h 9.0mph /  14.5km/h 68% 0.04in /  1mm
14:49 62.2 °F /  16.8 °C 51.5 °F /  10.8 °C 30.03in /  1016.8hPa SW 2.0mph /  3.2km/h 9.0mph /  14.5km/h 68% 0.04in /  1mm
14:54 61.9 °F /  16.6 °C 51.2 °F /  10.7 °C 30.03in /  1016.8hPa Calm   9.0mph /  14.5km/h 68% 0.04in /  1mm
14:59 61.8 °F /  16.6 °C 51.1 °F /  10.6 °C 30.03in /  1016.8hPa SSW 1.0mph /  1.6km/h 9.0mph /  14.5km/h 68% 0.04in /  1mm
15:04 61.6 °F /  16.4 °C 50.9 °F /  10.5 °C 30.02in /  1016.5hPa Calm   6.0mph /  9.7km/h 68% 0.04in /  1mm
15:09 61.8 °F /  16.6 °C 51.9 °F /  11.1 °C 30.02in /  1016.5hPa Calm   7.0mph /  11.3km/h 70% 0.04in /  1mm
15:14 62.4 °F /  16.9 °C 52.1 °F /  11.2 °C 30.02in /  1016.5hPa SW 4.0mph /  6.4km/h 8.0mph /  12.9km/h 69% 0.04in /  1mm
15:19 63.0 °F /  17.2 °C 52.3 °F /  11.3 °C 30.02in /  1016.5hPa WSW 5.0mph /  8km/h 10.0mph /  16.1km/h 68% 0.04in /  1mm
15:24 63.8 °F /  17.7 °C 52.2 °F /  11.2 °C 30.02in /  1016.5hPa SSW 1.0mph /  1.6km/h 10.0mph /  16.1km/h 66% 0.04in /  1mm
15:29 63.2 °F /  17.3 °C 51.7 °F /  10.9 °C 30.01in /  1016.1hPa WSW 4.0mph /  6.4km/h 9.0mph /  14.5km/h 66% 0.04in /  1mm
15:39 62.2 °F /  16.8 °C 51.1 °F /  10.6 °C 30.02in /  1016.5hPa SW 5.0mph /  8km/h 9.0mph /  14.5km/h 67% 0.04in /  1mm
15:44 62.2 °F /  16.8 °C 51.9 °F /  11.1 °C 30.02in /  1016.5hPa SW 2.0mph /  3.2km/h 9.0mph /  14.5km/h 69% 0.04in /  1mm
15:49 62.1 °F /  16.7 °C 51.4 °F /  10.8 °C 30.02in /  1016.5hPa SW 2.0mph /  3.2km/h 7.0mph /  11.3km/h 68% 0.04in /  1mm
15:54 61.6 °F /  16.4 °C 51.3 °F /  10.7 °C 30.02in /  1016.5hPa SW 2.0mph /  3.2km/h 7.0mph /  11.3km/h 69% 0.04in /  1mm
15:59 61.1 °F /  16.2 °C 51.3 °F /  10.7 °C 30.02in /  1016.5hPa SW 2.0mph /  3.2km/h 8.0mph /  12.9km/h 70% 0.04in /  1mm
16:04 60.9 °F /  16.1 °C 51.1 °F /  10.6 °C 30.02in /  1016.5hPa WSW 3.0mph /  4.8km/h 9.0mph /  14.5km/h 70% 0.04in /  1mm
16:09 60.8 °F /  16 °C 51.3 °F /  10.7 °C 30.01in /  1016.1hPa Calm   9.0mph /  14.5km/h 71% 0.04in /  1mm
16:14 60.5 °F /  15.8 °C 50.7 °F /  10.4 °C 30.01in /  1016.1hPa SSW 2.0mph /  3.2km/h 8.0mph /  12.9km/h 70% 0.04in /  1mm
16:19 60.1 °F /  15.6 °C 50.7 °F /  10.4 °C 30.01in /  1016.1hPa SW 2.0mph /  3.2km/h 8.0mph /  12.9km/h 71% 0.04in /  1mm
16:24 59.9 °F /  15.5 °C 50.9 °F /  10.5 °C 30.01in /  1016.1hPa SW 4.0mph /  6.4km/h 8.0mph /  12.9km/h 72% 0.04in /  1mm
16:29 59.7 °F /  15.4 °C 51.0 °F /  10.6 °C 30.01in /  1016.1hPa Calm   10.0mph /  16.1km/h 73% 0.04in /  1mm
16:34 59.5 °F /  15.3 °C 50.8 °F /  10.4 °C 30.01in /  1016.1hPa SSW 1.0mph /  1.6km/h 10.0mph /  16.1km/h 73% 0.04in /  1mm
16:39 59.3 °F /  15.2 °C 51.0 °F /  10.6 °C 30.00in /  1015.8hPa SSW 1.0mph /  1.6km/h 7.0mph /  11.3km/h 74% 0.04in /  1mm
16:44 59.0 °F /  15 °C 50.7 °F /  10.4 °C 30.00in /  1015.8hPa SW 4.0mph /  6.4km/h 8.0mph /  12.9km/h 74% 0.04in /  1mm
16:49 59.0 °F /  15 °C 50.7 °F /  10.4 °C 30.00in /  1015.8hPa SW 6.0mph /  9.7km/h 8.0mph /  12.9km/h 74% 0.04in /  1mm
16:54 58.6 °F /  14.8 °C 50.7 °F /  10.4 °C 30.00in /  1015.8hPa SW 3.0mph /  4.8km/h 9.0mph /  14.5km/h 75% 0.04in /  1mm
16:59 58.4 °F /  14.7 °C 50.5 °F /  10.3 °C 29.98in /  1015.1hPa SSW 4.0mph /  6.4km/h 9.0mph /  14.5km/h 75% 0.04in /  1mm
17:04 58.4 °F /  14.7 °C 50.5 °F /  10.3 °C 29.98in /  1015.1hPa SSW 2.0mph /  3.2km/h 8.0mph /  12.9km/h 75% 0.04in /  1mm
17:09 58.7 °F /  14.8 °C 50.8 °F /  10.4 °C 29.98in /  1015.1hPa SSW 5.0mph /  8km/h 7.0mph /  11.3km/h 75% 0.04in /  1mm
17:14 59.0 °F /  15 °C 51.1 °F /  10.6 °C 29.98in /  1015.1hPa SW 5.0mph /  8km/h 8.0mph /  12.9km/h 75% 0.04in /  1mm
17:19 59.0 °F /  15 °C 51.1 °F /  10.6 °C 29.97in /  1014.8hPa SSW 2.0mph /  3.2km/h 8.0mph /  12.9km/h 75% 0.04in /  1mm
17:24 59.0 °F /  15 °C 51.1 °F /  10.6 °C 29.97in /  1014.8hPa SSW 4.0mph /  6.4km/h 8.0mph /  12.9km/h 75% 0.04in /  1mm
17:29 59.2 °F /  15.1 °C 51.3 °F /  10.7 °C 29.97in /  1014.8hPa SSW 2.0mph /  3.2km/h 8.0mph /  12.9km/h 75% 0.04in /  1mm
17:34 59.3 °F /  15.2 °C 51.4 °F /  10.8 °C 29.96in /  1014.4hPa SSW 1.0mph /  1.6km/h 7.0mph /  11.3km/h 75% 0.04in /  1mm
17:39 59.5 °F /  15.3 °C 51.2 °F /  10.7 °C 29.96in /  1014.4hPa SW 2.0mph /  3.2km/h 7.0mph /  11.3km/h 74% 0.04in /  1mm
17:44 59.6 °F /  15.3 °C 51.3 °F /  10.7 °C 29.96in /  1014.4hPa Calm   7.0mph /  11.3km/h 74% 0.04in /  1mm
17:49 59.6 °F /  15.3 °C 51.3 °F /  10.7 °C 29.96in /  1014.4hPa SSW 1.0mph /  1.6km/h 6.0mph /  9.7km/h 74% 0.04in /  1mm
17:54 59.6 °F /  15.3 °C 51.3 °F /  10.7 °C 29.96in /  1014.4hPa Calm   6.0mph /  9.7km/h 74% 0.04in /  1mm
17:59 59.6 °F /  15.3 °C 51.3 °F /  10.7 °C 29.97in /  1014.8hPa SW 3.0mph /  4.8km/h 7.0mph /  11.3km/h 74% 0.04in /  1mm
18:04 59.3 °F /  15.2 °C 51.0 °F /  10.6 °C 29.97in /  1014.8hPa SSW 1.0mph /  1.6km/h 7.0mph /  11.3km/h 74% 0.04in /  1mm
18:09 59.1 °F /  15.1 °C 51.2 °F /  10.7 °C 29.98in /  1015.1hPa Calm   7.0mph /  11.3km/h 75% 0.04in /  1mm
18:14 59.0 °F /  15 °C 50.7 °F /  10.4 °C 29.98in /  1015.1hPa SW 1.0mph /  1.6km/h 6.0mph /  9.7km/h 74% 0.04in /  1mm
18:19 59.0 °F /  15 °C 50.7 °F /  10.4 °C 29.98in /  1015.1hPa SSW 4.0mph /  6.4km/h 9.0mph /  14.5km/h 74% 0.04in /  1mm
18:24 59.0 °F /  15 °C 50.7 °F /  10.4 °C 29.99in /  1015.5hPa SSW 4.0mph /  6.4km/h 9.0mph /  14.5km/h 74% 0.04in /  1mm
18:29 59.0 °F /  15 °C 50.7 °F /  10.4 °C 30.00in /  1015.8hPa SSW 2.0mph /  3.2km/h 9.0mph /  14.5km/h 74% 0.04in /  1mm
18:34 59.0 °F /  15 °C 51.1 °F /  10.6 °C 30.00in /  1015.8hPa WSW 3.0mph /  4.8km/h 9.0mph /  14.5km/h 75% 0.04in /  1mm
18:39 59.0 °F /  15 °C 51.1 °F /  10.6 °C 30.00in /  1015.8hPa West 1.0mph /  1.6km/h 6.0mph /  9.7km/h 75% 0.04in /  1mm
18:44 58.8 °F /  14.9 °C 50.5 °F /  10.3 °C 30.00in /  1015.8hPa WSW 4.0mph /  6.4km/h 7.0mph /  11.3km/h 74% 0.04in /  1mm
18:49 58.6 °F /  14.8 °C 50.3 °F /  10.2 °C 29.99in /  1015.5hPa SW 3.0mph /  4.8km/h 8.0mph /  12.9km/h 74% 0.04in /  1mm
18:59 58.4 °F /  14.7 °C 50.5 °F /  10.3 °C 30.00in /  1015.8hPa SW 3.0mph /  4.8km/h 7.0mph /  11.3km/h 75% 0.04in /  1mm
19:04 58.3 °F /  14.6 °C 50.4 °F /  10.2 °C 30.00in /  1015.8hPa SW 2.0mph /  3.2km/h 7.0mph /  11.3km/h 75% 0.04in /  1mm
19:09 58.2 °F /  14.6 °C 50.7 °F /  10.4 °C 30.00in /  1015.8hPa SSW 4.0mph /  6.4km/h 7.0mph /  11.3km/h 76% 0.04in /  1mm
19:14 58.0 °F /  14.4 °C 50.8 °F /  10.4 °C 30.00in /  1015.8hPa SSW 5.0mph /  8km/h 8.0mph /  12.9km/h 77% 0.04in /  1mm
19:19 57.8 °F /  14.3 °C 50.6 °F /  10.3 °C 30.00in /  1015.8hPa SW 1.0mph /  1.6km/h 8.0mph /  12.9km/h 77% 0.04in /  1mm
19:24 57.7 °F /  14.3 °C 50.9 °F /  10.5 °C 30.00in /  1015.8hPa SW 1.0mph /  1.6km/h 6.0mph /  9.7km/h 78% 0.04in /  1mm
19:29 57.5 °F /  14.2 °C 51.0 °F /  10.6 °C 30.00in /  1015.8hPa SSW 1.0mph /  1.6km/h 6.0mph /  9.7km/h 79% 0.04in /  1mm
19:34 57.3 °F /  14.1 °C 50.8 °F /  10.4 °C 30.00in /  1015.8hPa SSW 1.0mph /  1.6km/h 12.0mph /  19.3km/h 79% 0.04in /  1mm
19:39 57.2 °F /  14 °C 51.1 °F /  10.6 °C 30.00in /  1015.8hPa SW 1.0mph /  1.6km/h 12.0mph /  19.3km/h 80% 0.04in /  1mm
19:49 56.8 °F /  13.8 °C 50.7 °F /  10.4 °C 30.00in /  1015.8hPa SSW 3.0mph /  4.8km/h 12.0mph /  19.3km/h 80% 0.04in /  1mm
19:54 56.7 °F /  13.7 °C 50.9 °F /  10.5 °C 30.00in /  1015.8hPa SSW 2.0mph /  3.2km/h 11.0mph /  17.7km/h 81% 0.04in /  1mm
19:59 56.6 °F /  13.7 °C 50.8 °F /  10.4 °C 30.00in /  1015.8hPa Calm   6.0mph /  9.7km/h 81% 0.04in /  1mm
20:04 56.5 °F /  13.6 °C 50.7 °F /  10.4 °C 30.00in /  1015.8hPa SSW 2.0mph /  3.2km/h 7.0mph /  11.3km/h 81% 0.04in /  1mm
20:09 56.5 °F /  13.6 °C 50.7 °F /  10.4 °C 30.00in /  1015.8hPa Calm   7.0mph /  11.3km/h 81% 0.04in /  1mm
20:14 56.4 °F /  13.6 °C 50.6 °F /  10.3 °C 29.99in /  1015.5hPa South 1.0mph /  1.6km/h 5.0mph /  8km/h 81% 0.04in /  1mm
20:19 56.4 °F /  13.6 °C 50.6 °F /  10.3 °C 29.99in /  1015.5hPa Calm   8.0mph /  12.9km/h 81% 0.04in /  1mm
20:24 56.3 °F /  13.5 °C 50.5 °F /  10.3 °C 29.98in /  1015.1hPa Calm   8.0mph /  12.9km/h 81% 0.04in /  1mm
20:29 56.3 °F /  13.5 °C 50.5 °F /  10.3 °C 29.98in /  1015.1hPa South 2.0mph /  3.2km/h 7.0mph /  11.3km/h 81% 0.04in /  1mm
20:34 56.3 °F /  13.5 °C 50.5 °F /  10.3 °C 29.98in /  1015.1hPa Calm   7.0mph /  11.3km/h 81% 0.04in /  1mm
20:39 56.2 °F /  13.4 °C 50.5 °F /  10.3 °C 29.98in /  1015.1hPa South 1.0mph /  1.6km/h 7.0mph /  11.3km/h 81% 0.04in /  1mm
20:44 56.2 °F /  13.4 °C 50.5 °F /  10.3 °C 29.97in /  1014.8hPa SSW 1.0mph /  1.6km/h 8.0mph /  12.9km/h 81% 0.04in /  1mm
20:49 56.2 °F /  13.4 °C 50.5 °F /  10.3 °C 29.97in /  1014.8hPa Calm   8.0mph /  12.9km/h 81% 0.04in /  1mm
20:54 56.0 °F /  13.3 °C 50.3 °F /  10.2 °C 29.97in /  1014.8hPa Calm   8.0mph /  12.9km/h 81% 0.04in /  1mm
21:04 55.9 °F /  13.3 °C 50.2 °F /  10.1 °C 29.97in /  1014.8hPa SSW 1.0mph /  1.6km/h 6.0mph /  9.7km/h 81% 0.04in /  1mm
21:09 55.9 °F /  13.3 °C 50.2 °F /  10.1 °C 29.97in /  1014.8hPa SSW 4.0mph /  6.4km/h 8.0mph /  12.9km/h 81% 0.04in /  1mm
21:14 55.8 °F /  13.2 °C 50.1 °F /  10.1 °C 29.97in /  1014.8hPa SSW 2.0mph /  3.2km/h 8.0mph /  12.9km/h 81% 0.04in /  1mm
21:19 55.8 °F /  13.2 °C 50.1 °F /  10.1 °C 29.97in /  1014.8hPa South 2.0mph /  3.2km/h 7.0mph /  11.3km/h 81% 0.04in /  1mm
21:29 55.8 °F /  13.2 °C 50.1 °F /  10.1 °C 29.96in /  1014.4hPa Calm   8.0mph /  12.9km/h 81% 0.04in /  1mm
21:34 55.7 °F /  13.2 °C 50.0 °F /  10 °C 29.98in /  1015.1hPa SSW 3.0mph /  4.8km/h 8.0mph /  12.9km/h 81% 0.04in /  1mm
21:39 55.6 °F /  13.1 °C 49.9 °F /  9.9 °C 29.98in /  1015.1hPa SSW 3.0mph /  4.8km/h 7.0mph /  11.3km/h 81% 0.04in /  1mm
21:44 55.5 °F /  13.1 °C 49.8 °F /  9.9 °C 29.98in /  1015.1hPa SSW 1.0mph /  1.6km/h 7.0mph /  11.3km/h 81% 0.04in /  1mm
21:49 55.4 °F /  13 °C 49.7 °F /  9.8 °C 29.98in /  1015.1hPa Calm   7.0mph /  11.3km/h 81% 0.04in /  1mm
21:54 55.4 °F /  13 °C 50.0 °F /  10 °C 29.98in /  1015.1hPa SSW 1.0mph /  1.6km/h 7.0mph /  11.3km/h 82% 0.04in /  1mm
21:59 55.3 °F /  12.9 °C 49.9 °F /  9.9 °C 29.98in /  1015.1hPa Calm   6.0mph /  9.7km/h 82% 0.04in /  1mm
22:04 55.1 °F /  12.8 °C 49.7 °F /  9.8 °C 29.98in /  1015.1hPa SSW 2.0mph /  3.2km/h 8.0mph /  12.9km/h 82% 0.04in /  1mm
22:09 55.0 °F /  12.8 °C 49.6 °F /  9.8 °C 29.97in /  1014.8hPa SSW 6.0mph /  9.7km/h 9.0mph /  14.5km/h 82% 0.04in /  1mm
22:14 55.1 °F /  12.8 °C 49.7 °F /  9.8 °C 29.97in /  1014.8hPa SSW 4.0mph /  6.4km/h 9.0mph /  14.5km/h 82% 0.04in /  1mm
22:19 55.2 °F /  12.9 °C 49.5 °F /  9.7 °C 29.96in /  1014.4hPa South 3.0mph /  4.8km/h 11.0mph /  17.7km/h 81% 0.04in /  1mm
22:24 55.2 °F /  12.9 °C 49.5 °F /  9.7 °C 29.96in /  1014.4hPa South 4.0mph /  6.4km/h 11.0mph /  17.7km/h 81% 0.04in /  1mm
22:29 55.1 °F /  12.8 °C 49.4 °F /  9.7 °C 29.96in /  1014.4hPa SSW 3.0mph /  4.8km/h 10.0mph /  16.1km/h 81% 0.04in /  1mm
22:34 55.1 °F /  12.8 °C 49.4 °F /  9.7 °C 29.97in /  1014.8hPa SSW 4.0mph /  6.4km/h 10.0mph /  16.1km/h 81% 0.04in /  1mm
22:44 54.5 °F /  12.5 °C 49.1 °F /  9.5 °C 29.97in /  1014.8hPa SSW 2.0mph /  3.2km/h 7.0mph /  11.3km/h 82% 0.04in /  1mm
22:49 54.3 °F /  12.4 °C 49.3 °F /  9.6 °C 29.96in /  1014.4hPa SSW 2.0mph /  3.2km/h 7.0mph /  11.3km/h 83% 0.04in /  1mm
22:54 54.2 °F /  12.3 °C 49.5 °F /  9.7 °C 29.95in /  1014.1hPa SSW 3.0mph /  4.8km/h 10.0mph /  16.1km/h 84% 0.04in /  1mm
22:59 54.2 °F /  12.3 °C 49.5 °F /  9.7 °C 29.94in /  1013.8hPa South 3.0mph /  4.8km/h 10.0mph /  16.1km/h 84% 0.04in /  1mm
23:04 54.4 °F /  12.4 °C 49.7 °F /  9.8 °C 29.93in /  1013.4hPa South 6.0mph /  9.7km/h 10.0mph /  16.1km/h 84% 0.04in /  1mm
23:09 54.7 °F /  12.6 °C 50.0 °F /  10 °C 29.93in /  1013.4hPa South 2.0mph /  3.2km/h 11.0mph /  17.7km/h 84% 0.04in /  1mm
23:14 54.7 °F /  12.6 °C 50.0 °F /  10 °C 29.92in /  1013.1hPa South 6.0mph /  9.7km/h 11.0mph /  17.7km/h 84% 0.04in /  1mm
23:19 54.8 °F /  12.7 °C 50.4 °F /  10.2 °C 29.92in /  1013.1hPa South 6.0mph /  9.7km/h 11.0mph /  17.7km/h 85% 0.04in /  1mm
23:24 54.9 °F /  12.7 °C 50.5 °F /  10.3 °C 29.92in /  1013.1hPa South 5.0mph /  8km/h 13.0mph /  20.9km/h 85% 0.04in /  1mm
23:29 54.9 °F /  12.7 °C 50.2 °F /  10.1 °C 29.92in /  1013.1hPa South 3.0mph /  4.8km/h 13.0mph /  20.9km/h 84% 0.04in /  1mm
23:34 55.0 °F /  12.8 °C 50.6 °F /  10.3 °C 29.92in /  1013.1hPa South 5.0mph /  8km/h 9.0mph /  14.5km/h 85% 0.04in /  1mm
23:44 55.3 °F /  12.9 °C 50.6 °F /  10.3 °C 29.92in /  1013.1hPa South 2.0mph /  3.2km/h 10.0mph /  16.1km/h 84% 0.04in /  1mm
23:49 55.4 °F /  13 °C 50.7 °F /  10.4 °C 29.92in /  1013.1hPa SSW 4.0mph /  6.4km/h 8.0mph /  12.9km/h 84% 0.04in /  1mm
23:54 55.5 °F /  13.1 °C 50.7 °F /  10.4 °C 29.93in /  1013.4hPa SSW 4.0mph /  6.4km/h 8.0mph /  12.9km/h 84% 0.04in /  1mm
23:59 55.5 °F /  13.1 °C 50.7 °F /  10.4 °C 29.94in /  1013.8hPa SSW 1.0mph /  1.6km/h 8.0mph /  12.9km/h 84% 0.04in /  1mm
Westford Weather
Compliments of Weather Underground

 
 
Current Radar Loop:

Copyright © WestfordWeather.net 2007-2014. All rights reserved.